sensor_id;sensor_type;location;lat;lon;timestamp;pressure;altitude;pressure_sealevel;temperature;humidity
49459;BME280;35354;51.296;16.924;2022-07-29T00:00:56;99881.69;;;18.75;51.78
49459;BME280;35354;51.296;16.924;2022-07-29T00:03:21;99884.94;;;18.78;52.13
49459;BME280;35354;51.296;16.924;2022-07-29T00:05:47;99890.47;;;18.75;52.52
49459;BME280;35354;51.296;16.924;2022-07-29T00:08:12;99887.56;;;18.78;52.75
49459;BME280;35354;51.296;16.924;2022-07-29T00:10:38;99890.47;;;18.75;52.89
49459;BME280;35354;51.296;16.924;2022-07-29T00:13:03;99894.88;;;18.75;53.23
49459;BME280;35354;51.296;16.924;2022-07-29T00:15:29;99892.38;;;18.73;53.65
49459;BME280;35354;51.296;16.924;2022-07-29T00:17:54;99881.66;;;18.63;53.86
49459;BME280;35354;51.296;16.924;2022-07-29T00:20:19;99883.69;;;18.60;54.07
49459;BME280;35354;51.296;16.924;2022-07-29T00:22:45;99888.00;;;18.61;54.16
49459;BME280;35354;51.296;16.924;2022-07-29T00:25:12;99883.56;;;18.61;54.57
49459;BME280;35354;51.296;16.924;2022-07-29T00:27:38;99880.44;;;18.56;54.53
49459;BME280;35354;51.296;16.924;2022-07-29T00:30:04;99885.84;;;18.55;54.62
49459;BME280;35354;51.296;16.924;2022-07-29T00:32:30;99897.22;;;18.55;54.75
49459;BME280;35354;51.296;16.924;2022-07-29T00:34:55;99874.78;;;18.50;54.67
49459;BME280;35354;51.296;16.924;2022-07-29T00:37:39;99879.81;;;18.53;54.50
49459;BME280;35354;51.296;16.924;2022-07-29T00:40:06;99874.91;;;18.48;54.15
49459;BME280;35354;51.296;16.924;2022-07-29T00:42:41;99869.84;;;18.45;54.62
49459;BME280;35354;51.296;16.924;2022-07-29T00:45:07;99864.94;;;18.40;54.43
49459;BME280;35354;51.296;16.924;2022-07-29T00:47:32;99872.84;;;18.40;54.36
49459;BME280;35354;51.296;16.924;2022-07-29T00:49:58;99879.91;;;18.40;54.29
49459;BME280;35354;51.296;16.924;2022-07-29T00:52:23;99885.75;;;18.32;54.50
49459;BME280;35354;51.296;16.924;2022-07-29T00:54:48;99882.41;;;18.30;54.42
49459;BME280;35354;51.296;16.924;2022-07-29T00:57:14;99868.22;;;18.20;53.89
49459;BME280;35354;51.296;16.924;2022-07-29T00:59:39;99861.03;;;18.22;53.97
49459;BME280;35354;51.296;16.924;2022-07-29T01:02:05;99866.53;;;18.19;54.09
49459;BME280;35354;51.296;16.924;2022-07-29T01:04:31;99880.56;;;18.19;53.90
49459;BME280;35354;51.296;16.924;2022-07-29T01:06:57;99885.13;;;18.17;54.15
49459;BME280;35354;51.296;16.924;2022-07-29T01:09:23;99871.78;;;18.08;54.16
49459;BME280;35354;51.296;16.924;2022-07-29T01:11:49;99872.97;;;18.04;54.08
49459;BME280;35354;51.296;16.924;2022-07-29T01:14:15;99870.56;;;18.01;54.14
49459;BME280;35354;51.296;16.924;2022-07-29T01:16:55;99863.00;;;17.96;54.39
49459;BME280;35354;51.296;16.924;2022-07-29T01:22:25;99861.88;;;17.87;54.42
49459;BME280;35354;51.296;16.924;2022-07-29T01:25:19;99873.97;;;17.90;54.43
49459;BME280;35354;51.296;16.924;2022-07-29T01:30:32;99863.69;;;17.87;54.57
49459;BME280;35354;51.296;16.924;2022-07-29T01:33:00;99850.31;;;17.77;54.56
49459;BME280;35354;51.296;16.924;2022-07-29T01:35:35;99855.50;;;17.79;54.96
49459;BME280;35354;51.296;16.924;2022-07-29T01:38:09;99866.25;;;17.76;55.11
49459;BME280;35354;51.296;16.924;2022-07-29T01:40:48;99851.28;;;17.63;55.37
49459;BME280;35354;51.296;16.924;2022-07-29T01:43:17;99861.00;;;17.63;55.72
49459;BME280;35354;51.296;16.924;2022-07-29T01:48:19;99860.81;;;17.53;56.22
49459;BME280;35354;51.296;16.924;2022-07-29T01:50:49;99855.66;;;17.52;56.89
49459;BME280;35354;51.296;16.924;2022-07-29T01:53:21;99846.63;;;17.43;57.25
49459;BME280;35354;51.296;16.924;2022-07-29T01:55:51;99837.75;;;17.44;57.60
49459;BME280;35354;51.296;16.924;2022-07-29T01:58:19;99824.44;;;17.34;57.60
49459;BME280;35354;51.296;16.924;2022-07-29T02:00:45;99829.47;;;17.37;57.93
49459;BME280;35354;51.296;16.924;2022-07-29T02:03:12;99824.88;;;17.28;58.44
49459;BME280;35354;51.296;16.924;2022-07-29T02:05:41;99822.34;;;17.27;58.61
49459;BME280;35354;51.296;16.924;2022-07-29T02:08:08;99832.44;;;17.33;58.65
49459;BME280;35354;51.296;16.924;2022-07-29T02:10:36;99820.78;;;17.24;58.57
49459;BME280;35354;51.296;16.924;2022-07-29T02:13:03;99831.69;;;17.31;59.10
49459;BME280;35354;51.296;16.924;2022-07-29T02:15:33;99831.06;;;17.27;59.32
49459;BME280;35354;51.296;16.924;2022-07-29T02:18:08;99824.47;;;17.21;59.49
49459;BME280;35354;51.296;16.924;2022-07-29T02:20:35;99821.41;;;17.15;59.81
49459;BME280;35354;51.296;16.924;2022-07-29T02:23:02;99819.03;;;17.12;60.02
49459;BME280;35354;51.296;16.924;2022-07-29T02:25:29;99829.31;;;17.15;60.31
49459;BME280;35354;51.296;16.924;2022-07-29T02:27:55;99817.66;;;17.06;60.60
49459;BME280;35354;51.296;16.924;2022-07-29T02:30:21;99815.88;;;17.07;60.79
49459;BME280;35354;51.296;16.924;2022-07-29T02:32:49;99821.88;;;17.09;60.89
49459;BME280;35354;51.296;16.924;2022-07-29T02:35:16;99828.28;;;17.05;61.39
49459;BME280;35354;51.296;16.924;2022-07-29T02:37:44;99801.88;;;16.93;61.59
49459;BME280;35354;51.296;16.924;2022-07-29T02:40:31;99804.75;;;16.90;61.79
49459;BME280;35354;51.296;16.924;2022-07-29T02:42:57;99820.84;;;16.99;61.93
49459;BME280;35354;51.296;16.924;2022-07-29T02:45:23;99817.78;;;16.92;62.14
49459;BME280;35354;51.296;16.924;2022-07-29T02:47:49;99832.53;;;16.94;62.62
49459;BME280;35354;51.296;16.924;2022-07-29T02:50:20;99826.13;;;16.86;62.74
49459;BME280;35354;51.296;16.924;2022-07-29T02:57:58;99829.91;;;16.82;63.43
49459;BME280;35354;51.296;16.924;2022-07-29T03:00:28;99817.38;;;16.73;64.12
49459;BME280;35354;51.296;16.924;2022-07-29T03:02:56;99831.41;;;16.73;64.28
49459;BME280;35354;51.296;16.924;2022-07-29T03:05:24;99822.09;;;16.67;64.48
49459;BME280;35354;51.296;16.924;2022-07-29T03:07:53;99829.78;;;16.70;64.78
49459;BME280;35354;51.296;16.924;2022-07-29T03:10:20;99832.53;;;16.69;65.38
49459;BME280;35354;51.296;16.924;2022-07-29T03:12:47;99838.72;;;16.68;65.51
49459;BME280;35354;51.296;16.924;2022-07-29T03:15:13;99822.41;;;16.63;65.36
49459;BME280;35354;51.296;16.924;2022-07-29T03:17:39;99838.00;;;16.66;65.76
49459;BME280;35354;51.296;16.924;2022-07-29T03:20:08;99842.41;;;16.65;66.00
49459;BME280;35354;51.296;16.924;2022-07-29T03:22:39;99844.09;;;16.66;65.85
49459;BME280;35354;51.296;16.924;2022-07-29T03:25:09;99845.88;;;16.66;65.80
49459;BME280;35354;51.296;16.924;2022-07-29T03:27:35;99837.25;;;16.64;65.82
49459;BME280;35354;51.296;16.924;2022-07-29T03:30:00;99842.72;;;16.61;65.53
49459;BME280;35354;51.296;16.924;2022-07-29T03:32:26;99842.28;;;16.67;65.70
49459;BME280;35354;51.296;16.924;2022-07-29T03:34:51;99848.31;;;16.69;65.44
49459;BME280;35354;51.296;16.924;2022-07-29T03:37:16;99840.94;;;16.61;65.58
49459;BME280;35354;51.296;16.924;2022-07-29T03:39:42;99835.25;;;16.55;65.12
49459;BME280;35354;51.296;16.924;2022-07-29T03:42:10;99842.81;;;16.59;65.61
49459;BME280;35354;51.296;16.924;2022-07-29T03:44:37;99839.53;;;16.56;65.51
49459;BME280;35354;51.296;16.924;2022-07-29T03:47:03;99847.88;;;16.62;65.61
49459;BME280;35354;51.296;16.924;2022-07-29T03:49:31;99852.28;;;16.62;65.53
49459;BME280;35354;51.296;16.924;2022-07-29T03:51:57;99861.97;;;16.61;65.78
49459;BME280;35354;51.296;16.924;2022-07-29T03:54:23;99854.94;;;16.62;65.74
49459;BME280;35354;51.296;16.924;2022-07-29T03:56:50;99843.88;;;16.57;65.57
49459;BME280;35354;51.296;16.924;2022-07-29T03:59:17;99844.19;;;16.52;65.70
49459;BME280;35354;51.296;16.924;2022-07-29T04:01:45;99846.50;;;16.57;66.03
49459;BME280;35354;51.296;16.924;2022-07-29T04:04:11;99853.97;;;16.63;65.87
49459;BME280;35354;51.296;16.924;2022-07-29T04:06:41;99852.09;;;16.65;66.14
49459;BME280;35354;51.296;16.924;2022-07-29T04:09:07;99849.16;;;16.69;66.15
49459;BME280;35354;51.296;16.924;2022-07-29T04:11:32;99846.09;;;16.76;65.71
49459;BME280;35354;51.296;16.924;2022-07-29T04:13:58;99847.69;;;16.91;65.44
49459;BME280;35354;51.296;16.924;2022-07-29T04:16:23;99853.50;;;17.33;64.10
49459;BME280;35354;51.296;16.924;2022-07-29T04:18:48;99848.78;;;17.62;62.75
49459;BME280;35354;51.296;16.924;2022-07-29T04:21:14;99862.66;;;18.01;61.74
49459;BME280;35354;51.296;16.924;2022-07-29T04:23:39;99858.56;;;18.32;59.89
49459;BME280;35354;51.296;16.924;2022-07-29T04:26:06;99852.97;;;18.48;58.84
49459;BME280;35354;51.296;16.924;2022-07-29T04:28:34;99851.81;;;18.63;58.36
49459;BME280;35354;51.296;16.924;2022-07-29T04:31:00;99844.03;;;18.95;57.68
49459;BME280;35354;51.296;16.924;2022-07-29T04:33:25;99836.06;;;19.62;55.48
49459;BME280;35354;51.296;16.924;2022-07-29T04:35:51;99842.81;;;20.40;53.03
49459;BME280;35354;51.296;16.924;2022-07-29T04:38:16;99841.41;;;20.88;51.39
49459;BME280;35354;51.296;16.924;2022-07-29T04:40:42;99848.69;;;20.65;51.66
49459;BME280;35354;51.296;16.924;2022-07-29T04:43:07;99852.97;;;20.56;52.22
49459;BME280;35354;51.296;16.924;2022-07-29T04:45:32;99838.75;;;20.57;51.42
49459;BME280;35354;51.296;16.924;2022-07-29T04:47:58;99844.44;;;20.53;51.88
49459;BME280;35354;51.296;16.924;2022-07-29T04:50:23;99843.22;;;20.57;51.89
49459;BME280;35354;51.296;16.924;2022-07-29T04:52:48;99839.78;;;20.66;51.04
49459;BME280;35354;51.296;16.924;2022-07-29T04:55:14;99831.75;;;21.08;50.16
49459;BME280;35354;51.296;16.924;2022-07-29T04:57:39;99818.66;;;21.76;48.64
49459;BME280;35354;51.296;16.924;2022-07-29T05:00:06;99832.53;;;22.65;46.37
49459;BME280;35354;51.296;16.924;2022-07-29T05:02:32;99831.56;;;22.66;45.66
49459;BME280;35354;51.296;16.924;2022-07-29T05:04:57;99839.16;;;22.32;46.66
49459;BME280;35354;51.296;16.924;2022-07-29T05:07:22;99852.03;;;21.88;47.81
49459;BME280;35354;51.296;16.924;2022-07-29T05:09:48;99823.41;;;22.01;47.60
49459;BME280;35354;51.296;16.924;2022-07-29T05:12:13;99832.19;;;22.40;46.99
49459;BME280;35354;51.296;16.924;2022-07-29T05:14:38;99839.03;;;22.24;46.74
49459;BME280;35354;51.296;16.924;2022-07-29T05:17:04;99838.19;;;22.33;46.47
49459;BME280;35354;51.296;16.924;2022-07-29T05:19:29;99852.34;;;22.71;45.88
49459;BME280;35354;51.296;16.924;2022-07-29T05:21:55;99840.28;;;22.10;46.99
49459;BME280;35354;51.296;16.924;2022-07-29T05:24:20;99845.03;;;21.58;48.30
49459;BME280;35354;51.296;16.924;2022-07-29T05:26:45;99857.50;;;21.06;49.66
49459;BME280;35354;51.296;16.924;2022-07-29T05:29:11;99850.69;;;20.52;51.46
49459;BME280;35354;51.296;16.924;2022-07-29T05:31:36;99850.41;;;20.34;52.19
49459;BME280;35354;51.296;16.924;2022-07-29T05:34:01;99848.88;;;20.10;52.75
49459;BME280;35354;51.296;16.924;2022-07-29T05:36:27;99839.88;;;19.69;53.49
49459;BME280;35354;51.296;16.924;2022-07-29T05:38:53;99839.06;;;19.47;54.71
49459;BME280;35354;51.296;16.924;2022-07-29T05:41:19;99840.41;;;19.30;55.51
49459;BME280;35354;51.296;16.924;2022-07-29T05:43:44;99848.47;;;19.28;56.19
49459;BME280;35354;51.296;16.924;2022-07-29T05:46:09;99848.69;;;19.25;55.74
49459;BME280;35354;51.296;16.924;2022-07-29T05:48:35;99847.75;;;19.15;56.13
49459;BME280;35354;51.296;16.924;2022-07-29T05:51:00;99848.97;;;19.11;56.98
49459;BME280;35354;51.296;16.924;2022-07-29T05:53:26;99854.94;;;19.24;56.89
49459;BME280;35354;51.296;16.924;2022-07-29T05:55:51;99859.13;;;19.38;56.28
49459;BME280;35354;51.296;16.924;2022-07-29T05:58:17;99855.69;;;19.26;56.81
49459;BME280;35354;51.296;16.924;2022-07-29T06:00:43;99842.34;;;19.39;56.56
49459;BME280;35354;51.296;16.924;2022-07-29T06:03:08;99846.13;;;19.68;56.11
49459;BME280;35354;51.296;16.924;2022-07-29T06:05:34;99834.25;;;19.63;55.22
49459;BME280;35354;51.296;16.924;2022-07-29T06:07:59;99853.56;;;19.75;55.65
49459;BME280;35354;51.296;16.924;2022-07-29T06:10:24;99836.13;;;20.04;54.45
49459;BME280;35354;51.296;16.924;2022-07-29T06:12:50;99850.84;;;20.39;53.74
49459;BME280;35354;51.296;16.924;2022-07-29T06:15:15;99852.16;;;20.44;53.52
49459;BME280;35354;51.296;16.924;2022-07-29T06:17:41;99847.84;;;20.64;52.24
49459;BME280;35354;51.296;16.924;2022-07-29T06:20:06;99852.75;;;21.00;52.35
49459;BME280;35354;51.296;16.924;2022-07-29T06:22:32;99835.63;;;21.34;51.45
49459;BME280;35354;51.296;16.924;2022-07-29T06:24:57;99859.47;;;21.34;50.71
49459;BME280;35354;51.296;16.924;2022-07-29T06:27:22;99836.09;;;21.59;50.52
49459;BME280;35354;51.296;16.924;2022-07-29T06:29:48;99857.78;;;22.12;49.18
49459;BME280;35354;51.296;16.924;2022-07-29T06:32:13;99863.31;;;22.09;48.71
49459;BME280;35354;51.296;16.924;2022-07-29T06:34:38;99848.13;;;21.92;49.34
49459;BME280;35354;51.296;16.924;2022-07-29T06:37:08;99851.31;;;22.05;48.91
49459;BME280;35354;51.296;16.924;2022-07-29T06:39:36;99850.75;;;22.40;48.45
49459;BME280;35354;51.296;16.924;2022-07-29T06:42:03;99848.59;;;22.73;47.75
49459;BME280;35354;51.296;16.924;2022-07-29T06:44:29;99852.00;;;23.03;45.55
49459;BME280;35354;51.296;16.924;2022-07-29T06:46:55;99840.06;;;24.33;44.71
49459;BME280;35354;51.296;16.924;2022-07-29T06:49:21;99854.78;;;26.80;39.43
49459;BME280;35354;51.296;16.924;2022-07-29T06:51:47;99844.28;;;26.54;38.55
49459;BME280;35354;51.296;16.924;2022-07-29T06:54:12;99855.25;;;24.93;41.91
49459;BME280;35354;51.296;16.924;2022-07-29T06:56:37;99841.91;;;24.15;43.02
49459;BME280;35354;51.296;16.924;2022-07-29T06:59:04;99847.69;;;23.93;43.87
49459;BME280;35354;51.296;16.924;2022-07-29T07:01:29;99857.50;;;23.92;44.43
49459;BME280;35354;51.296;16.924;2022-07-29T07:03:55;99855.44;;;24.39;43.21
49459;BME280;35354;51.296;16.924;2022-07-29T07:06:20;99859.84;;;24.13;44.17
49459;BME280;35354;51.296;16.924;2022-07-29T07:08:46;99847.25;;;24.15;44.03
49459;BME280;35354;51.296;16.924;2022-07-29T07:11:11;99857.84;;;24.33;43.74
49459;BME280;35354;51.296;16.924;2022-07-29T07:13:37;99860.59;;;24.93;42.19
49459;BME280;35354;51.296;16.924;2022-07-29T07:16:03;99854.47;;;26.10;39.71
49459;BME280;35354;51.296;16.924;2022-07-29T07:18:28;99862.53;;;27.15;37.58
49459;BME280;35354;51.296;16.924;2022-07-29T07:20:54;99856.31;;;26.09;39.08
49459;BME280;35354;51.296;16.924;2022-07-29T07:23:19;99852.44;;;26.69;38.03
49459;BME280;35354;51.296;16.924;2022-07-29T07:25:45;99844.22;;;27.34;37.39
49459;BME280;35354;51.296;16.924;2022-07-29T07:28:10;99855.16;;;27.08;37.02
49459;BME280;35354;51.296;16.924;2022-07-29T07:30:35;99844.84;;;27.76;36.43
49459;BME280;35354;51.296;16.924;2022-07-29T07:33:01;99836.38;;;29.51;34.40
49459;BME280;35354;51.296;16.924;2022-07-29T07:35:27;99842.91;;;32.79;30.13
49459;BME280;35354;51.296;16.924;2022-07-29T07:37:55;99854.53;;;32.93;28.64
49459;BME280;35354;51.296;16.924;2022-07-29T07:40:20;99861.75;;;30.84;30.18
49459;BME280;35354;51.296;16.924;2022-07-29T07:42:46;99849.53;;;28.20;34.43
49459;BME280;35354;51.296;16.924;2022-07-29T07:45:11;99852.28;;;26.71;37.18
49459;BME280;35354;51.296;16.924;2022-07-29T07:47:37;99847.81;;;26.22;38.19
49459;BME280;35354;51.296;16.924;2022-07-29T07:50:09;99847.31;;;26.59;37.88
49459;BME280;35354;51.296;16.924;2022-07-29T07:52:46;99848.63;;;25.98;39.15
49459;BME280;35354;51.296;16.924;2022-07-29T07:55:12;99845.63;;;25.85;39.10
49459;BME280;35354;51.296;16.924;2022-07-29T07:57:37;99849.94;;;25.78;39.39
49459;BME280;35354;51.296;16.924;2022-07-29T08:00:04;99846.81;;;26.56;38.28
49459;BME280;35354;51.296;16.924;2022-07-29T08:02:29;99857.03;;;27.00;37.38
49459;BME280;35354;51.296;16.924;2022-07-29T08:04:54;99852.50;;;27.08;37.00
49459;BME280;35354;51.296;16.924;2022-07-29T08:07:20;99841.34;;;27.67;35.89
49459;BME280;35354;51.296;16.924;2022-07-29T08:09:45;99847.50;;;28.45;34.92
49459;BME280;35354;51.296;16.924;2022-07-29T08:12:10;99849.31;;;28.44;34.92
49459;BME280;35354;51.296;16.924;2022-07-29T08:14:36;99846.69;;;27.75;35.84
49459;BME280;35354;51.296;16.924;2022-07-29T08:17:01;99844.31;;;26.05;38.49
49459;BME280;35354;51.296;16.924;2022-07-29T08:19:27;99853.84;;;25.41;40.16
49459;BME280;35354;51.296;16.924;2022-07-29T08:21:52;99853.03;;;25.57;40.44
49459;BME280;35354;51.296;16.924;2022-07-29T08:24:18;99849.84;;;25.45;41.03
49459;BME280;35354;51.296;16.924;2022-07-29T08:27:02;99853.50;;;26.52;40.22
49459;BME280;35354;51.296;16.924;2022-07-29T08:29:28;99856.78;;;26.70;38.68
49459;BME280;35354;51.296;16.924;2022-07-29T08:31:53;99841.13;;;26.43;39.68
49459;BME280;35354;51.296;16.924;2022-07-29T08:34:18;99847.13;;;26.36;39.61
49459;BME280;35354;51.296;16.924;2022-07-29T08:36:44;99854.13;;;26.54;38.85
49459;BME280;35354;51.296;16.924;2022-07-29T08:39:09;99852.66;;;26.10;40.02
49459;BME280;35354;51.296;16.924;2022-07-29T08:41:35;99856.13;;;25.86;40.02
49459;BME280;35354;51.296;16.924;2022-07-29T08:44:00;99848.91;;;25.62;40.75
49459;BME280;35354;51.296;16.924;2022-07-29T08:46:26;99848.06;;;25.62;40.85
49459;BME280;35354;51.296;16.924;2022-07-29T08:48:51;99850.44;;;25.23;41.75
49459;BME280;35354;51.296;16.924;2022-07-29T08:51:18;99862.91;;;25.14;42.59
49459;BME280;35354;51.296;16.924;2022-07-29T08:53:46;99837.13;;;24.97;42.07
49459;BME280;35354;51.296;16.924;2022-07-29T08:56:16;99845.09;;;25.23;42.27
49459;BME280;35354;51.296;16.924;2022-07-29T08:58:43;99843.03;;;25.51;41.53
49459;BME280;35354;51.296;16.924;2022-07-29T09:01:10;99855.63;;;25.24;42.00
49459;BME280;35354;51.296;16.924;2022-07-29T09:03:37;99852.09;;;25.24;42.99
49459;BME280;35354;51.296;16.924;2022-07-29T09:06:05;99846.25;;;25.12;42.65
49459;BME280;35354;51.296;16.924;2022-07-29T09:08:31;99847.94;;;25.21;43.11
49459;BME280;35354;51.296;16.924;2022-07-29T09:10:57;99847.63;;;25.24;43.06
49459;BME280;35354;51.296;16.924;2022-07-29T09:13:25;99848.16;;;25.44;42.78
49459;BME280;35354;51.296;16.924;2022-07-29T09:15:50;99850.19;;;25.42;42.79
49459;BME280;35354;51.296;16.924;2022-07-29T09:21:02;99842.41;;;25.14;43.06
49459;BME280;35354;51.296;16.924;2022-07-29T09:24:18;99850.13;;;25.26;42.69
49459;BME280;35354;51.296;16.924;2022-07-29T09:26:45;99853.09;;;25.23;42.81
49459;BME280;35354;51.296;16.924;2022-07-29T09:29:16;99839.78;;;25.31;43.17
49459;BME280;35354;51.296;16.924;2022-07-29T09:31:46;99850.47;;;25.31;42.83
49459;BME280;35354;51.296;16.924;2022-07-29T09:34:14;99848.06;;;25.54;42.51
49459;BME280;35354;51.296;16.924;2022-07-29T09:36:40;99836.88;;;25.50;42.12
49459;BME280;35354;51.296;16.924;2022-07-29T09:39:05;99844.03;;;25.66;42.35
49459;BME280;35354;51.296;16.924;2022-07-29T09:41:47;99831.22;;;25.70;42.95
49459;BME280;35354;51.296;16.924;2022-07-29T09:44:12;99828.06;;;25.58;42.87
49459;BME280;35354;51.296;16.924;2022-07-29T09:46:40;99822.53;;;25.51;42.60
49459;BME280;35354;51.296;16.924;2022-07-29T09:49:11;99825.38;;;25.66;42.33
49459;BME280;35354;51.296;16.924;2022-07-29T09:51:38;99815.41;;;25.76;41.57
49459;BME280;35354;51.296;16.924;2022-07-29T09:54:25;99828.13;;;26.07;41.24
49459;BME280;35354;51.296;16.924;2022-07-29T09:56:52;99827.78;;;26.10;41.64
49459;BME280;35354;51.296;16.924;2022-07-29T09:59:17;99818.03;;;25.60;41.69
49459;BME280;35354;51.296;16.924;2022-07-29T10:01:43;99826.03;;;25.52;42.07
49459;BME280;35354;51.296;16.924;2022-07-29T10:04:09;99818.34;;;25.49;41.49
49459;BME280;35354;51.296;16.924;2022-07-29T10:06:34;99822.72;;;25.66;41.46
49459;BME280;35354;51.296;16.924;2022-07-29T10:09:10;99813.41;;;25.62;41.67
49459;BME280;35354;51.296;16.924;2022-07-29T10:11:36;99807.88;;;25.63;42.00
49459;BME280;35354;51.296;16.924;2022-07-29T10:14:03;99809.56;;;25.73;41.61
49459;BME280;35354;51.296;16.924;2022-07-29T10:16:29;99814.09;;;25.80;41.44
49459;BME280;35354;51.296;16.924;2022-07-29T10:18:58;99814.78;;;25.99;41.12
49459;BME280;35354;51.296;16.924;2022-07-29T10:21:25;99813.25;;;26.29;40.68
49459;BME280;35354;51.296;16.924;2022-07-29T10:23:51;99819.09;;;26.16;40.00
49459;BME280;35354;51.296;16.924;2022-07-29T10:26:17;99810.94;;;26.01;40.30
49459;BME280;35354;51.296;16.924;2022-07-29T10:28:44;99805.75;;;26.16;40.00
49459;BME280;35354;51.296;16.924;2022-07-29T10:31:18;99793.56;;;26.30;40.11
49459;BME280;35354;51.296;16.924;2022-07-29T10:34:07;99805.41;;;26.19;39.39
49459;BME280;35354;51.296;16.924;2022-07-29T10:42:19;99804.88;;;25.58;40.50
49459;BME280;35354;51.296;16.924;2022-07-29T10:44:46;99804.03;;;25.74;40.59
49459;BME280;35354;51.296;16.924;2022-07-29T10:47:31;99796.44;;;25.87;40.42
49459;BME280;35354;51.296;16.924;2022-07-29T10:50:01;99797.09;;;25.81;40.77
49459;BME280;35354;51.296;16.924;2022-07-29T10:55:31;99792.41;;;26.00;40.30
49459;BME280;35354;51.296;16.924;2022-07-29T11:00:37;99778.59;;;25.96;40.16
49459;BME280;35354;51.296;16.924;2022-07-29T11:03:03;99785.09;;;26.10;40.08
49459;BME280;35354;51.296;16.924;2022-07-29T11:05:28;99796.59;;;26.10;39.70
49459;BME280;35354;51.296;16.924;2022-07-29T11:08:23;99791.25;;;26.02;40.72
49459;BME280;35354;51.296;16.924;2022-07-29T11:10:53;99777.22;;;25.76;40.46
49459;BME280;35354;51.296;16.924;2022-07-29T11:16:09;99801.31;;;25.33;41.07
49459;BME280;35354;51.296;16.924;2022-07-29T11:18:34;99773.84;;;25.41;41.95
49459;BME280;35354;51.296;16.924;2022-07-29T11:21:00;99781.00;;;25.49;42.08
49459;BME280;35354;51.296;16.924;2022-07-29T11:23:30;99784.88;;;25.62;41.55
49459;BME280;35354;51.296;16.924;2022-07-29T11:29:06;99797.91;;;25.82;40.71
49459;BME280;35354;51.296;16.924;2022-07-29T11:31:41;99794.59;;;26.04;40.25
49459;BME280;35354;51.296;16.924;2022-07-29T11:34:30;99788.25;;;26.22;40.41
49459;BME280;35354;51.296;16.924;2022-07-29T11:39:31;99789.72;;;26.24;40.02
49459;BME280;35354;51.296;16.924;2022-07-29T11:47:37;99794.59;;;26.12;40.50
49459;BME280;35354;51.296;16.924;2022-07-29T11:50:05;99782.41;;;26.02;40.60
49459;BME280;35354;51.296;16.924;2022-07-29T11:52:36;99785.59;;;26.05;41.03
49459;BME280;35354;51.296;16.924;2022-07-29T11:55:04;99791.72;;;26.30;40.58
49459;BME280;35354;51.296;16.924;2022-07-29T11:57:31;99783.56;;;26.24;40.37
49459;BME280;35354;51.296;16.924;2022-07-29T11:59:59;99778.69;;;26.35;40.02
49459;BME280;35354;51.296;16.924;2022-07-29T12:02:24;99785.66;;;26.69;40.06
49459;BME280;35354;51.296;16.924;2022-07-29T12:04:53;99797.91;;;26.55;40.01
49459;BME280;35354;51.296;16.924;2022-07-29T12:07:26;99783.06;;;26.20;39.53
49459;BME280;35354;51.296;16.924;2022-07-29T12:09:53;99777.72;;;26.20;40.43
49459;BME280;35354;51.296;16.924;2022-07-29T12:12:20;99777.88;;;26.51;40.08
49459;BME280;35354;51.296;16.924;2022-07-29T12:14:46;99766.47;;;26.66;39.67
49459;BME280;35354;51.296;16.924;2022-07-29T12:17:47;99779.69;;;26.59;39.15
49459;BME280;35354;51.296;16.924;2022-07-29T12:20:13;99767.31;;;26.42;39.83
49459;BME280;35354;51.296;16.924;2022-07-29T12:22:46;99771.53;;;26.36;40.39
49459;BME280;35354;51.296;16.924;2022-07-29T12:25:14;99786.72;;;26.27;40.20
49459;BME280;35354;51.296;16.924;2022-07-29T12:27:42;99774.41;;;26.10;40.18
49459;BME280;35354;51.296;16.924;2022-07-29T12:30:12;99764.56;;;25.94;40.48
49459;BME280;35354;51.296;16.924;2022-07-29T12:32:45;99753.38;;;25.91;41.49
49459;BME280;35354;51.296;16.924;2022-07-29T12:37:39;99751.53;;;25.99;40.75
49459;BME280;35354;51.296;16.924;2022-07-29T12:40:07;99755.09;;;25.83;40.77
49459;BME280;35354;51.296;16.924;2022-07-29T12:42:33;99743.88;;;25.72;40.90
49459;BME280;35354;51.296;16.924;2022-07-29T12:45:00;99755.41;;;25.80;41.54
49459;BME280;35354;51.296;16.924;2022-07-29T12:47:26;99743.72;;;25.90;41.48
49459;BME280;35354;51.296;16.924;2022-07-29T12:50:11;99740.72;;;25.84;41.09
49459;BME280;35354;51.296;16.924;2022-07-29T12:52:37;99730.56;;;25.96;41.49
49459;BME280;35354;51.296;16.924;2022-07-29T12:55:03;99729.88;;;25.94;41.71
49459;BME280;35354;51.296;16.924;2022-07-29T12:57:29;99732.72;;;25.84;41.09
49459;BME280;35354;51.296;16.924;2022-07-29T13:00:09;99729.88;;;25.78;41.30
49459;BME280;35354;51.296;16.924;2022-07-29T13:02:37;99733.53;;;25.69;41.43
49459;BME280;35354;51.296;16.924;2022-07-29T13:05:05;99717.53;;;25.69;41.88
49459;BME280;35354;51.296;16.924;2022-07-29T13:07:32;99723.22;;;25.82;41.46
49459;BME280;35354;51.296;16.924;2022-07-29T13:10:14;99715.56;;;25.79;41.42
49459;BME280;35354;51.296;16.924;2022-07-29T13:13:06;99728.84;;;26.03;41.40
49459;BME280;35354;51.296;16.924;2022-07-29T13:15:34;99715.69;;;26.10;41.73
49459;BME280;35354;51.296;16.924;2022-07-29T13:18:00;99695.16;;;26.10;41.67
49459;BME280;35354;51.296;16.924;2022-07-29T13:20:28;99705.13;;;26.25;41.34
49459;BME280;35354;51.296;16.924;2022-07-29T13:23:00;99708.41;;;26.51;41.15
49459;BME280;35354;51.296;16.924;2022-07-29T13:25:26;99734.28;;;26.59;40.59
49459;BME280;35354;51.296;16.924;2022-07-29T13:27:52;99710.94;;;26.28;41.21
49459;BME280;35354;51.296;16.924;2022-07-29T13:30:20;99705.75;;;26.43;41.12
49459;BME280;35354;51.296;16.924;2022-07-29T13:32:45;99680.22;;;26.32;40.82
49459;BME280;35354;51.296;16.924;2022-07-29T13:35:11;99694.34;;;26.57;41.28
49459;BME280;35354;51.296;16.924;2022-07-29T13:37:37;99690.56;;;26.83;40.71